This is the latest recevied weather packets stored in our database for station/object YD2APR-13. If no packets are shown the sender has not sent any weather packets the latest 10 day(s).
| Time | Temp. | Humidity | Pressure | Rain* | Wind** | Luminosity | Snow |
|---|---|---|---|---|---|---|---|
| 1777795260 | 33.33° C | 54% | 1013 hPa | - | - | - | - |
| 1777794660 | 32.78° C | 55% | 1013 hPa | - | - | - | - |
| 1777794060 | 33.33° C | 56% | 1013.1 hPa | - | - | - | - |
| 1777793460 | 32.22° C | 59% | 1013.2 hPa | - | - | - | - |
| 1777792860 | 32.78° C | 57% | 1013.2 hPa | - | - | - | - |
| 1777792260 | 32.78° C | 56% | 1013.2 hPa | - | - | - | - |
| 1777791660 | 35° C | 52% | 1013.5 hPa | - | - | - | - |
| 1777791062 | 34.44° C | 53% | 1013.6 hPa | - | - | - | - |
| 1777790460 | 33.89° C | 55% | 1013.9 hPa | - | - | - | - |
| 1777789861 | 33.33° C | 56% | 1014 hPa | - | - | - | - |
| 1777789260 | 32.78° C | 56% | 1014.2 hPa | - | - | - | - |
| 1777788661 | 32.78° C | 57% | 1014.4 hPa | - | - | - | - |
| 1777788060 | 31.67° C | 60% | 1014.6 hPa | - | - | - | - |
| 1777787460 | 32.22° C | 58% | 1014.7 hPa | - | - | - | - |
| 1777786860 | 31.67° C | 60% | 1014.9 hPa | - | - | - | - |
| 1777786260 | 32.78° C | 58% | 1015 hPa | - | - | - | - |
| 1777785660 | 31.67° C | 61% | 1015.1 hPa | - | - | - | - |
| 1777785060 | 32.22° C | 60% | 1015.2 hPa | - | - | - | - |
| 1777784460 | 32.22° C | 59% | 1015.3 hPa | - | - | - | - |
| 1777783859 | 32.22° C | 58% | 1015.3 hPa | - | - | - | - |
| 1777783260 | 31.67° C | 58% | 1015.4 hPa | - | - | - | - |
| 1777782661 | 32.78° C | 54% | 1015.6 hPa | - | - | - | - |
| 1777782059 | 32.22° C | 55% | 1015.8 hPa | - | - | - | - |
| 1777781459 | 32.22° C | 54% | 1015.9 hPa | - | - | - | - |
| 1777780859 | 31.67° C | 55% | 1016 hPa | - | - | - | - |
* Rain since midnight (hover to see other rain measurements)
** Current wind speed in m/s (hover to see current wind gust speed)